Time;durP1;ratioP1;P1;durP2;ratioP2;P2;SDS_P1;SDS_P2;PMS_P1;PMS_P2;Temp;Humidity;BMP_temperature;BMP_pressure;BME280_temperature;BME280_humidity;BME280_pressure;Samples;Min_cycle;Max_cycle;Signal;HPM_P1;HPM_P2
2021/04/17 00:00:19;;;;;;;7.28;4.40;;;;;;;20.15;37.76;100022.00;2049827;28;20030;-63
2021/04/17 00:01:20;;;;;;;7.28;4.25;;;;;;;20.16;37.77;100026.44;2051831;28;20034;-64
2021/04/17 00:02:21;;;;;;;7.80;4.47;;;;;;;20.15;37.73;100022.00;2052026;28;20474;-63
2021/04/17 00:03:22;;;;;;;7.25;4.25;;;;;;;20.15;37.75;100019.28;2054897;28;20544;-63
2021/04/17 00:04:23;;;;;;;7.13;4.07;;;;;;;20.16;37.77;100018.25;2054160;28;20027;-63
2021/04/17 00:05:24;;;;;;;5.18;3.90;;;;;;;20.13;37.72;100014.78;2049818;28;20818;-63
2021/04/17 00:06:25;;;;;;;6.00;4.10;;;;;;;20.16;37.68;100029.19;2054688;28;20457;-63
2021/04/17 00:07:26;;;;;;;7.13;4.10;;;;;;;20.15;37.81;100022.00;2054808;28;20023;-64
2021/04/17 00:08:26;;;;;;;5.15;3.88;;;;;;;20.13;37.69;100020.28;2054248;28;20041;-63
2021/04/17 00:09:28;;;;;;;5.80;4.03;;;;;;;20.15;37.69;100016.53;2054491;28;20371;-63
2021/04/17 00:10:29;;;;;;;6.53;4.15;;;;;;;20.16;37.60;100020.97;2054679;28;20061;-65
2021/04/17 00:11:29;;;;;;;5.77;3.80;;;;;;;20.17;37.60;100019.97;2053730;28;20033;-65
2021/04/17 00:12:30;;;;;;;8.60;4.23;;;;;;;20.15;37.68;100022.00;2051271;28;20492;-65
2021/04/17 00:13:31;;;;;;;5.57;4.05;;;;;;;20.17;37.65;100030.94;2054711;28;20023;-65
2021/04/17 00:14:35;;;;;;;6.83;3.90;;;;;;;20.15;37.46;100028.34;2053866;28;20027;-65
2021/04/17 00:15:36;;;;;;;6.70;4.13;;;;;;;20.13;37.71;100028.47;2054503;28;20027;-65
2021/04/17 00:16:36;;;;;;;5.70;3.67;;;;;;;20.16;37.70;100034.66;2054618;28;20593;-65
2021/04/17 00:17:37;;;;;;;5.63;4.07;;;;;;;20.18;37.68;100033.47;2054965;28;20120;-65
2021/04/17 00:18:37;;;;;;;5.90;3.83;;;;;;;20.18;37.60;100032.63;2047614;28;20695;-65
2021/04/17 00:19:39;;;;;;;6.77;4.00;;;;;;;20.18;37.64;100027.16;2052207;28;20069;-65
2021/04/17 00:20:49;;;;;;;6.07;3.95;;;;;;;20.16;37.60;100030.03;2055920;28;20034;-64
2021/04/17 00:21:50;;;;;;;5.97;3.60;;;;;;;20.15;37.61;100028.34;2059825;28;20022;-65
2021/04/17 00:22:50;;;;;;;6.67;3.93;;;;;;;20.16;37.68;100029.19;2052707;28;20553;-65
2021/04/17 00:23:51;;;;;;;6.13;3.97;;;;;;;20.13;37.71;100031.22;2054125;28;20033;-65
2021/04/17 00:24:52;;;;;;;6.70;4.10;;;;;;;20.15;37.65;100035.69;2048733;28;20035;-65
2021/04/17 00:25:52;;;;;;;7.00;3.73;;;;;;;20.13;37.63;100036.69;2054064;28;20042;-63
2021/04/17 00:26:53;;;;;;;5.00;3.57;;;;;;;20.14;37.67;100037.56;2053245;28;20031;-64
2021/04/17 00:27:53;;;;;;;5.87;3.97;;;;;;;20.13;37.68;100023.00;2054793;28;20041;-64
2021/04/17 00:28:54;;;;;;;6.93;4.30;;;;;;;20.12;37.66;100021.31;2054764;28;20019;-64
2021/04/17 00:29:54;;;;;;;7.03;3.93;;;;;;;20.12;37.67;100029.50;2054021;28;20860;-64
2021/04/17 00:30:54;;;;;;;5.87;3.47;;;;;;;20.12;37.72;100024.03;2053756;28;20023;-63
2021/04/17 00:31:55;;;;;;;8.83;4.33;;;;;;;20.12;37.66;100017.72;2054529;28;20576;-63
2021/04/17 00:32:55;;;;;;;6.90;4.07;;;;;;;20.09;37.71;100018.88;2054628;28;20028;-63
2021/04/17 00:33:56;;;;;;;6.07;4.20;;;;;;;20.11;37.68;100021.44;2054410;28;20038;-63
2021/04/17 00:34:57;;;;;;;7.87;4.07;;;;;;;20.11;37.72;100022.34;2054882;28;20506;-63
2021/04/17 00:35:57;;;;;;;6.83;3.77;;;;;;;20.10;37.62;100020.59;2054776;28;20611;-64
2021/04/17 00:36:58;;;;;;;6.00;3.60;;;;;;;20.08;37.69;100011.69;2052261;28;20129;-63
2021/04/17 00:37:58;;;;;;;6.53;3.57;;;;;;;20.07;37.69;100018.19;2048479;28;20035;-64
2021/04/17 00:38:59;;;;;;;7.20;4.57;;;;;;;20.07;37.65;100012.72;2053867;28;20026;-63
2021/04/17 00:39:59;;;;;;;4.80;3.67;;;;;;;20.07;37.63;100009.97;2054687;28;20393;-64
2021/04/17 00:41:00;;;;;;;7.53;3.97;;;;;;;20.07;37.89;100014.59;2054371;28;20026;-64
2021/04/17 00:42:00;;;;;;;4.67;3.33;;;;;;;20.06;37.75;100010.13;2051838;28;20058;-64
2021/04/17 00:43:01;;;;;;;5.90;3.27;;;;;;;20.06;37.71;100013.75;2048156;28;20033;-64
2021/04/17 00:44:02;;;;;;;6.70;3.30;;;;;;;20.04;37.77;100010.31;2061451;28;20609;-64
2021/04/17 00:45:05;;;;;;;5.60;3.50;;;;;;;20.03;37.76;100014.03;2054723;28;20057;-63
2021/04/17 00:46:05;;;;;;;6.22;3.90;;;;;;;20.03;37.73;100013.19;2047303;28;20035;-64
2021/04/17 00:47:07;;;;;;;5.20;3.23;;;;;;;20.04;37.72;100015.78;2048887;28;20307;-63
2021/04/17 00:48:07;;;;;;;7.10;4.10;;;;;;;20.02;37.78;100009.59;2053010;28;20034;-64
2021/04/17 00:49:09;;;;;;;5.40;3.80;;;;;;;20.02;37.72;100009.59;2049083;28;20110;-64
2021/04/17 00:50:10;;;;;;;5.93;4.22;;;;;;;20.02;37.74;100009.59;2046461;28;20435;-64
2021/04/17 00:51:11;;;;;;;4.50;3.58;;;;;;;20.01;37.83;100005.13;2052922;28;20034;-63
2021/04/17 00:52:12;;;;;;;4.93;3.80;;;;;;;20.02;37.81;100003.28;2053536;28;20520;-64
2021/04/17 00:53:12;;;;;;;5.43;4.03;;;;;;;20.01;37.82;100005.13;2047240;28;20070;-64
2021/04/17 00:54:13;;;;;;;4.70;3.80;;;;;;;20.02;37.77;100011.47;2052776;28;20060;-63
2021/04/17 00:55:13;;;;;;;5.00;3.63;;;;;;;20.00;37.82;100002.56;2048190;28;20117;-64
2021/04/17 00:56:18;;;;;;;4.73;3.40;;;;;;;19.98;37.76;100004.59;2053369;28;20482;-63
2021/04/17 00:57:19;;;;;;;3.55;3.00;;;;;;;19.99;37.86;99995.34;2053653;28;20038;-64
2021/04/17 00:58:19;;;;;;;4.03;3.30;;;;;;;19.98;37.88;99999.97;2053813;28;20466;-64
2021/04/17 00:59:20;;;;;;;5.93;3.60;;;;;;;19.97;37.85;99992.78;2053770;28;20026;-63
2021/04/17 01:00:21;;;;;;;7.30;4.20;;;;;;;19.96;37.81;99996.53;2053664;28;20054;-64
2021/04/17 01:01:21;;;;;;;5.75;3.55;;;;;;;19.96;37.85;99991.06;2050633;28;20023;-64
2021/04/17 01:02:29;;;;;;;4.47;3.53;;;;;;;19.96;37.83;99999.25;2047654;28;20065;-63
2021/04/17 01:03:35;;;;;;;4.78;3.13;;;;;;;19.96;37.80;99996.53;2048641;28;20019;-64
2021/04/17 01:04:41;;;;;;;5.60;3.35;;;;;;;19.95;37.87;99986.63;2060306;28;20626;-64
2021/04/17 01:05:45;;;;;;;5.63;3.72;;;;;;;19.96;37.87;99988.31;2060889;28;20153;-64
2021/04/17 01:06:51;;;;;;;5.70;3.90;;;;;;;19.97;37.80;99989.22;2069191;28;20029;-64
2021/04/17 01:07:56;;;;;;;7.47;4.03;;;;;;;19.97;37.87;99991.94;2066293;28;20035;-64
2021/04/17 01:09:07;;;;;;;5.35;3.55;;;;;;;19.97;37.85;99989.22;2053487;28;20106;-64
2021/04/17 01:10:22;;;;;;;5.90;3.33;;;;;;;19.97;37.85;99986.47;2052713;28;20063;-64
2021/04/17 01:11:30;;;;;;;6.05;3.22;;;;;;;19.96;37.83;99985.59;2052774;28;20034;-64
2021/04/17 01:12:33;;;;;;;4.97;3.45;;;;;;;19.96;37.81;99990.19;2052545;28;20034;-64
2021/04/17 01:13:35;;;;;;;4.97;3.70;;;;;;;19.97;37.75;99981.84;2050417;28;20038;-63
2021/04/17 01:14:37;;;;;;;5.22;3.25;;;;;;;19.97;37.87;99979.13;2061225;28;20034;-64
2021/04/17 01:15:39;;;;;;;5.28;3.10;;;;;;;19.98;37.71;99989.03;2053969;28;20081;-64
2021/04/17 01:16:42;;;;;;;5.13;3.03;;;;;;;19.97;37.78;99981.84;2054256;28;20025;-64
2021/04/17 01:17:52;;;;;;;5.90;3.58;;;;;;;19.98;37.69;99983.56;2053969;28;20098;-64
2021/04/17 01:18:53;;;;;;;5.50;3.25;;;;;;;19.98;37.76;99980.81;2054142;28;20109;-64
2021/04/17 01:20:18;;;;;;;4.72;3.30;;;;;;;19.97;37.77;99981.84;2054461;28;20047;-63
2021/04/17 01:21:21;;;;;;;4.18;3.03;;;;;;;19.98;37.91;99982.69;2052442;28;20164;-64
2021/04/17 01:22:24;;;;;;;5.45;3.28;;;;;;;19.98;37.79;99982.69;2048603;28;20074;-64
2021/04/17 01:23:33;;;;;;;4.80;3.50;;;;;;;19.97;37.78;99990.06;2051746;28;20099;-64
2021/04/17 01:24:36;;;;;;;4.90;3.33;;;;;;;19.99;37.72;99984.41;2053610;28;20117;-64
2021/04/17 01:25:47;;;;;;;4.40;3.28;;;;;;;19.96;37.83;99977.38;2052740;28;20773;-64
2021/04/17 01:26:48;;;;;;;4.85;3.30;;;;;;;19.97;37.68;99981.00;2046515;28;20035;-64
2021/04/17 01:27:48;;;;;;;5.70;3.27;;;;;;;19.97;37.76;99975.53;2050007;28;20058;-64
2021/04/17 01:28:52;;;;;;;5.33;3.37;;;;;;;19.97;37.70;99981.00;2054282;28;20042;-64
2021/04/17 01:29:54;;;;;;;5.55;3.05;;;;;;;19.96;37.79;99976.53;2052613;28;20027;-64
2021/04/17 01:30:56;;;;;;;4.93;3.20;;;;;;;19.95;37.71;99975.66;2054009;28;20109;-64
2021/04/17 01:31:59;;;;;;;5.57;3.80;;;;;;;19.96;37.78;99973.78;2054275;28;20034;-64
2021/04/17 01:33:00;;;;;;;5.15;3.33;;;;;;;19.95;37.77;99975.66;2052502;28;20033;-64
2021/04/17 01:34:04;;;;;;;5.63;3.00;;;;;;;19.95;37.72;99978.41;2053756;28;20041;-64
2021/04/17 01:35:12;;;;;;;4.38;3.22;;;;;;;19.93;37.76;99972.22;2052162;28;20673;-64
2021/04/17 01:36:14;;;;;;;4.85;3.42;;;;;;;19.92;37.84;99968.63;2054161;28;20030;-64
2021/04/17 01:37:15;;;;;;;4.18;3.40;;;;;;;19.92;37.76;99973.25;2053314;28;20045;-64
2021/04/17 01:38:20;;;;;;;3.85;2.70;;;;;;;19.93;37.83;99969.50;2054165;28;20474;-64
2021/04/17 01:39:25;;;;;;;5.20;3.25;;;;;;;19.92;37.79;99967.78;2054049;28;20125;-64
2021/04/17 01:40:29;;;;;;;6.22;3.10;;;;;;;19.91;37.76;99961.44;2053773;28;20049;-64
2021/04/17 01:41:34;;;;;;;4.82;3.53;;;;;;;19.91;37.88;99971.53;2054440;28;20081;-64
2021/04/17 01:42:35;;;;;;;5.22;3.33;;;;;;;19.90;37.81;99958.88;2053907;28;20027;-64
2021/04/17 01:43:36;;;;;;;5.77;3.20;;;;;;;19.89;37.81;99960.75;2050865;28;20505;-64
2021/04/17 01:44:44;;;;;;;4.88;3.25;;;;;;;19.89;37.84;99968.09;2054506;28;20038;-64
2021/04/17 01:45:45;;;;;;;4.85;3.20;;;;;;;19.87;37.82;99961.94;2053933;28;20027;-64
2021/04/17 01:46:53;;;;;;;4.75;3.40;;;;;;;19.86;37.92;99961.06;2054497;28;20572;-64
2021/04/17 01:47:57;;;;;;;5.07;3.60;;;;;;;19.86;37.88;99966.53;2054534;28;20565;-64
2021/04/17 01:49:02;;;;;;;4.97;3.08;;;;;;;19.85;37.91;99961.22;2050746;28;20082;-64
2021/04/17 01:50:03;;;;;;;4.75;2.92;;;;;;;19.85;37.89;99963.97;2046220;28;20530;-64
2021/04/17 01:51:05;;;;;;;4.73;3.23;;;;;;;19.86;37.88;99965.66;2058887;28;20472;-64
2021/04/17 01:52:08;;;;;;;8.10;3.50;;;;;;;19.85;37.75;99961.22;2060051;28;20048;-64
2021/04/17 01:53:14;;;;;;;5.28;3.17;;;;;;;19.84;37.91;99964.97;2054411;28;20158;-64
2021/04/17 01:54:21;;;;;;;4.47;2.90;;;;;;;19.82;37.92;99961.53;2052566;28;20022;-65
2021/04/17 01:55:22;;;;;;;5.20;3.45;;;;;;;19.84;37.92;99962.22;2053765;28;20042;-64
2021/04/17 01:56:24;;;;;;;4.55;3.25;;;;;;;19.83;37.96;99952.31;2051986;28;20100;-65
2021/04/17 01:57:26;;;;;;;;;;;;;;;19.78;37.98;99958.25;2053385;28;20071;-64
2021/04/17 01:58:30;;;;;;;5.07;2.80;;;;;;;19.78;37.90;99969.19;2054371;28;19929;-64
2021/04/17 01:59:35;;;;;;;4.95;2.88;;;;;;;19.78;37.99;99960.16;2053782;28;20062;-64
2021/04/17 02:00:36;;;;;;;4.20;3.08;;;;;;;19.79;38.02;99961.84;2054316;28;20053;-64
2021/04/17 02:01:36;;;;;;;4.07;2.90;;;;;;;19.80;38.01;99960.84;2053383;28;20029;-64
2021/04/17 02:02:37;;;;;;;3.90;2.80;;;;;;;19.79;37.96;99961.84;2052355;28;20105;-64
2021/04/17 02:03:37;;;;;;;5.80;3.00;;;;;;;19.79;37.95;99965.44;2048999;28;20037;-64
2021/04/17 02:04:38;;;;;;;4.50;3.23;;;;;;;19.79;38.02;99961.84;2052521;28;20039;-63
2021/04/17 02:05:38;;;;;;;5.77;3.23;;;;;;;19.80;37.96;99963.59;2054411;28;20038;-64
2021/04/17 02:06:39;;;;;;;5.07;3.27;;;;;;;19.80;37.93;99963.59;2053979;28;20023;-64
2021/04/17 02:07:39;;;;;;;4.97;2.93;;;;;;;19.80;37.91;99958.13;2053558;28;20127;-64
2021/04/17 02:08:40;;;;;;;4.33;3.00;;;;;;;19.80;37.98;99955.38;2054469;28;20026;-65
2021/04/17 02:09:41;;;;;;;4.83;3.03;;;;;;;19.80;37.79;99953.50;2053933;28;20029;-65
2021/04/17 02:10:42;;;;;;;7.13;3.87;;;;;;;19.82;37.83;99961.53;2054434;28;20266;-64
2021/04/17 02:11:43;;;;;;;4.60;2.92;;;;;;;19.81;37.93;99955.19;2053165;28;20023;-65
2021/04/17 02:12:43;;;;;;;4.33;2.83;;;;;;;19.82;37.78;99956.06;2053141;28;20581;-65
2021/04/17 02:13:45;;;;;;;4.77;2.90;;;;;;;19.82;37.80;99956.06;2050217;28;20034;-65
2021/04/17 02:14:45;;;;;;;4.68;2.85;;;;;;;19.81;37.78;99963.41;2053515;28;20113;-64
2021/04/17 02:15:47;;;;;;;4.33;2.60;;;;;;;19.83;37.89;99957.78;2053994;28;20059;-64
2021/04/17 02:16:52;;;;;;;3.97;3.05;;;;;;;19.82;37.79;99953.31;2054107;28;20613;-64
2021/04/17 02:18:07;;;;;;;4.35;2.83;;;;;;;19.81;37.85;99959.81;2054070;28;20532;-64
2021/04/17 02:19:13;;;;;;;4.32;3.00;;;;;;;19.82;37.79;99958.78;2050413;28;20125;-65
2021/04/17 02:20:20;;;;;;;4.65;2.70;;;;;;;19.83;37.74;99955.06;2051129;28;20030;-65
2021/04/17 02:21:25;;;;;;;5.28;2.88;;;;;;;19.82;37.87;99956.06;2046008;28;20046;-65
2021/04/17 02:22:26;;;;;;;4.72;3.13;;;;;;;19.82;37.77;99958.78;2054127;28;20077;-65
2021/04/17 02:23:28;;;;;;;5.43;3.08;;;;;;;19.83;37.80;99952.31;2052673;28;20054;-65
2021/04/17 02:24:29;;;;;;;4.90;2.78;;;;;;;19.83;37.84;99952.31;2051860;28;20486;-65
2021/04/17 02:25:31;;;;;;;5.00;3.17;;;;;;;19.83;37.87;99955.06;2053625;28;20041;-65
2021/04/17 02:26:32;;;;;;;4.13;2.97;;;;;;;19.83;37.69;99958.66;2053060;28;20035;-64
2021/04/17 02:27:33;;;;;;;3.22;2.63;;;;;;;19.83;37.68;99952.31;2053335;28;20058;-65
2021/04/17 02:28:34;;;;;;;4.37;3.17;;;;;;;19.82;37.78;99951.47;2052162;28;20027;-65
2021/04/17 02:29:34;;;;;;;4.53;3.17;;;;;;;19.83;37.82;99955.06;2054017;28;20027;-64
2021/04/17 02:30:37;;;;;;;2.97;2.60;;;;;;;19.82;37.72;99950.59;2053960;28;20504;-65
2021/04/17 02:31:38;;;;;;;4.63;2.78;;;;;;;19.83;37.76;99955.06;2054137;28;20053;-65
2021/04/17 02:32:38;;;;;;;3.70;2.80;;;;;;;19.82;37.84;99956.94;2052660;28;20018;-65
2021/04/17 02:33:39;;;;;;;3.87;2.63;;;;;;;19.81;37.72;99960.66;2053986;28;20027;-65
2021/04/17 02:34:41;;;;;;;4.20;2.63;;;;;;;19.80;37.80;99961.69;2053395;28;20035;-65
2021/04/17 02:35:41;;;;;;;4.78;3.05;;;;;;;19.81;37.81;99962.56;2053977;28;20114;-64
2021/04/17 02:36:42;;;;;;;4.53;3.00;;;;;;;19.80;37.79;99955.38;2052670;28;20035;-65
2021/04/17 02:37:42;;;;;;;4.83;3.13;;;;;;;19.80;37.71;99958.13;2054335;28;20046;-64
2021/04/17 02:38:43;;;;;;;3.93;2.60;;;;;;;19.78;37.77;99954.66;2053669;28;20058;-65
2021/04/17 02:39:44;;;;;;;4.10;3.10;;;;;;;19.77;37.77;99963.88;2054410;28;20560;-65
2021/04/17 02:40:44;;;;;;;5.20;3.10;;;;;;;19.77;37.72;99958.41;2049831;28;20031;-65
2021/04/17 02:41:46;;;;;;;5.67;3.13;;;;;;;19.77;37.76;99958.41;2047834;28;20042;-64
2021/04/17 02:42:46;;;;;;;3.60;2.88;;;;;;;19.76;37.83;99962.16;2054138;28;20031;-64
2021/04/17 02:43:46;;;;;;;4.87;2.60;;;;;;;19.76;37.77;99954.81;2049635;28;20029;-65
2021/04/17 02:44:47;;;;;;;5.27;2.90;;;;;;;19.74;37.82;99956.84;2053329;28;20034;-65
2021/04/17 02:45:47;;;;;;;4.53;3.53;;;;;;;19.74;37.93;99956.84;2052580;28;20037;-65
2021/04/17 02:46:48;;;;;;;3.37;2.40;;;;;;;19.75;37.93;99960.47;2053413;28;20106;-65
2021/04/17 02:47:48;;;;;;;3.30;2.43;;;;;;;19.73;37.88;99957.88;2053596;28;20026;-64
2021/04/17 02:48:49;;;;;;;6.10;3.00;;;;;;;19.74;37.95;99958.72;2053255;28;20023;-64
2021/04/17 02:49:49;;;;;;;3.33;2.67;;;;;;;19.73;38.10;99963.34;2054202;28;20033;-65
2021/04/17 02:50:49;;;;;;;3.97;2.70;;;;;;;19.70;37.91;99953.59;2053730;28;20058;-65
2021/04/17 02:51:50;;;;;;;4.77;3.13;;;;;;;19.71;38.00;99959.91;2054174;28;20034;-65
2021/04/17 02:52:51;;;;;;;4.63;2.63;;;;;;;19.71;37.88;99954.44;2053787;28;20533;-65
2021/04/17 02:53:52;;;;;;;3.87;2.47;;;;;;;19.71;37.78;99954.44;2053650;28;20711;-65
2021/04/17 02:54:52;;;;;;;3.60;2.72;;;;;;;19.70;37.93;99948.13;2054152;28;20039;-64
2021/04/17 02:55:54;;;;;;;5.10;2.97;;;;;;;19.69;37.79;99951.00;2053051;28;20501;-65
2021/04/17 02:56:54;;;;;;;4.47;2.80;;;;;;;19.69;37.87;99951.84;2053320;28;20113;-64
2021/04/17 02:57:55;;;;;;;3.93;2.83;;;;;;;19.69;37.95;99951.00;2051327;28;20034;-64
2021/04/17 02:58:55;;;;;;;3.63;2.63;;;;;;;19.68;37.87;99950.13;2053926;28;20565;-65
2021/04/17 02:59:55;;;;;;;4.13;2.93;;;;;;;19.68;37.87;99955.59;2054074;28;20030;-65
2021/04/17 03:00:56;;;;;;;4.53;3.27;;;;;;;19.69;37.94;99953.72;2053350;28;20149;-66
2021/04/17 03:01:57;;;;;;;3.33;2.47;;;;;;;19.67;37.77;99953.00;2053123;28;20117;-65
2021/04/17 03:03:00;;;;;;;4.37;3.10;;;;;;;19.67;37.96;99962.09;2055600;28;20027;-65
2021/04/17 03:04:01;;;;;;;4.03;2.55;;;;;;;19.67;37.81;99956.63;2055250;28;20871;-65
2021/04/17 03:05:01;;;;;;;6.03;2.87;;;;;;;19.68;37.91;99954.75;2055458;28;20034;-65
2021/04/17 03:06:03;;;;;;;3.80;2.57;;;;;;;19.68;37.83;99954.75;2054011;28;20741;-65
2021/04/17 03:07:03;;;;;;;4.55;3.28;;;;;;;19.68;37.88;99955.59;2055257;28;20039;-64
2021/04/17 03:08:04;;;;;;;2.87;2.57;;;;;;;19.68;37.90;99958.34;2051440;28;20138;-65
2021/04/17 03:09:05;;;;;;;5.07;3.23;;;;;;;19.68;37.78;99955.59;2052660;28;20097;-65
2021/04/17 03:10:06;;;;;;;6.80;2.80;;;;;;;19.69;37.67;99957.31;2048879;28;20039;-65
2021/04/17 03:11:07;;;;;;;4.68;3.22;;;;;;;19.69;37.90;99951.00;2055456;28;20568;-64
2021/04/17 03:12:08;;;;;;;3.73;2.57;;;;;;;19.70;37.76;99958.19;2049952;28;20597;-65
2021/04/17 03:13:08;;;;;;;4.03;3.00;;;;;;;19.70;37.80;99958.19;2052570;28;20035;-65
2021/04/17 03:14:09;;;;;;;5.90;3.00;;;;;;;19.70;37.83;99958.19;2049677;28;20379;-65
2021/04/17 03:15:10;;;;;;;4.13;2.73;;;;;;;19.70;37.80;99948.13;2054989;28;20094;-64
2021/04/17 03:16:10;;;;;;;3.50;2.53;;;;;;;19.70;37.83;99959.06;2054546;28;20463;-65
2021/04/17 03:17:11;;;;;;;4.80;2.57;;;;;;;19.70;37.78;99953.59;2055533;28;20281;-65
2021/04/17 03:18:12;;;;;;;3.60;2.70;;;;;;;19.70;37.68;99953.59;2053645;28;20859;-65
2021/04/17 03:19:12;;;;;;;3.97;2.47;;;;;;;19.70;37.75;99953.59;2055603;28;20038;-65
2021/04/17 03:20:13;;;;;;;4.20;2.67;;;;;;;19.70;37.89;99953.59;2053611;28;20022;-64
2021/04/17 03:21:14;;;;;;;3.58;2.72;;;;;;;19.72;37.77;99955.28;2054854;28;20613;-65
2021/04/17 03:22:14;;;;;;;4.40;2.77;;;;;;;19.70;37.65;99953.59;2051141;28;20595;-65
2021/04/17 03:23:15;;;;;;;4.60;3.30;;;;;;;19.73;37.74;99957.03;2050787;28;20041;-65
2021/04/17 03:24:15;;;;;;;3.30;2.40;;;;;;;19.70;37.78;99952.72;2055011;28;20037;-65
2021/04/17 03:25:16;;;;;;;2.80;2.00;;;;;;;19.72;37.74;99947.09;2054305;28;20026;-65
2021/04/17 03:26:17;;;;;;;3.70;2.83;;;;;;;19.72;37.68;99955.28;2055290;28;20035;-65
2021/04/17 03:27:17;;;;;;;3.83;2.50;;;;;;;19.71;37.71;99948.97;2053158;28;20596;-65
2021/04/17 03:28:18;;;;;;;4.47;3.47;;;;;;;19.72;37.67;99955.28;2054699;28;20038;-65
2021/04/17 03:29:18;;;;;;;3.43;2.57;;;;;;;19.70;37.81;99953.59;2055452;28;20038;-64
2021/04/17 03:30:26;;;;;;;3.20;2.63;;;;;;;19.69;37.81;99951.84;2054887;28;20042;-65
2021/04/17 03:31:27;;;;;;;5.00;2.50;;;;;;;19.69;37.69;99948.25;2055188;28;20031;-65
2021/04/17 03:32:27;;;;;;;3.03;2.20;;;;;;;19.69;37.76;99957.31;2054865;28;20320;-65
2021/04/17 03:33:28;;;;;;;3.17;2.37;;;;;;;19.70;37.77;99955.47;2054491;28;20069;-65
2021/04/17 03:34:28;;;;;;;3.60;2.63;;;;;;;19.68;37.71;99944.66;2055438;28;20034;-65
2021/04/17 03:35:31;;;;;;;3.50;2.67;;;;;;;19.69;37.66;99940.06;2055036;28;20100;-65
2021/04/17 03:36:31;;;;;;;3.58;2.72;;;;;;;19.69;37.67;99946.38;2055275;28;20037;-65
2021/04/17 03:37:31;;;;;;;3.40;2.53;;;;;;;19.67;37.75;99945.69;2055080;28;20042;-65
2021/04/17 03:38:33;;;;;;;3.70;2.40;;;;;;;19.68;37.72;99947.41;2051213;28;20062;-64
2021/04/17 03:39:33;;;;;;;4.72;3.05;;;;;;;19.67;37.69;99948.44;2047573;28;20138;-65
2021/04/17 03:40:33;;;;;;;3.40;2.13;;;;;;;19.67;37.73;99947.50;2046560;28;20105;-65
2021/04/17 03:41:34;;;;;;;3.27;2.93;;;;;;;19.66;37.70;99946.66;2046882;28;20031;-65
2021/04/17 03:42:35;;;;;;;4.07;2.93;;;;;;;19.65;37.72;99942.22;2055192;28;20033;-65
2021/04/17 03:43:35;;;;;;;2.90;2.27;;;;;;;19.65;37.71;99950.44;2051193;28;20150;-64
2021/04/17 03:44:36;;;;;;;6.30;3.30;;;;;;;19.65;37.78;99950.44;2050927;28;20046;-66
2021/04/17 03:45:36;;;;;;;4.27;3.00;;;;;;;19.64;37.72;99948.69;2061898;28;20022;-64
2021/04/17 03:46:37;;;;;;;4.83;2.63;;;;;;;19.64;37.73;99954.16;2055407;28;20508;-64
2021/04/17 03:47:38;;;;;;;5.57;2.90;;;;;;;19.64;37.75;99948.69;2054994;28;20111;-64
2021/04/17 03:48:38;;;;;;;3.47;2.35;;;;;;;19.64;37.74;99951.44;2053817;28;20195;-63
2021/04/17 03:49:39;;;;;;;3.57;2.70;;;;;;;19.63;37.66;99947.00;2054686;28;20040;-63
2021/04/17 03:50:39;;;;;;;4.87;3.03;;;;;;;19.63;37.74;99949.72;2055000;28;20359;-64
2021/04/17 03:51:40;;;;;;;3.33;2.80;;;;;;;19.61;37.84;99938.06;2055156;28;20042;-64
2021/04/17 03:52:41;;;;;;;3.97;2.83;;;;;;;19.60;37.74;99941.84;2054806;28;20042;-63
2021/04/17 03:53:41;;;;;;;3.77;2.43;;;;;;;19.60;37.76;99941.84;2054966;28;20058;-64
2021/04/17 03:54:42;;;;;;;3.97;2.87;;;;;;;19.60;37.73;99946.44;2062443;28;20185;-64
2021/04/17 03:55:42;;;;;;;3.47;2.40;;;;;;;19.58;37.71;99949.34;2057375;28;20520;-63
2021/04/17 03:56:42;;;;;;;3.60;1.93;;;;;;;19.58;37.72;99941.13;2047363;28;20443;-63
2021/04/17 03:57:44;;;;;;;3.63;2.33;;;;;;;19.57;37.80;99942.13;2053667;28;20061;-64
2021/04/17 03:58:45;;;;;;;3.92;2.78;;;;;;;19.58;37.75;99941.13;2054825;28;20027;-63
2021/04/17 03:59:46;;;;;;;3.27;2.40;;;;;;;19.57;37.88;99944.88;2055064;28;20070;-64
2021/04/17 04:00:47;;;;;;;3.33;2.50;;;;;;;19.57;37.81;99942.13;2054820;28;20030;-64
2021/04/17 04:01:47;;;;;;;3.80;3.10;;;;;;;19.55;37.79;99936.00;2055412;28;20099;-64
2021/04/17 04:02:48;;;;;;;3.57;2.60;;;;;;;19.55;37.77;99938.72;2054506;28;20037;-64
2021/04/17 04:03:49;;;;;;;4.10;2.47;;;;;;;19.55;37.69;99936.00;2054640;28;20046;-64
2021/04/17 04:04:49;;;;;;;4.20;2.23;;;;;;;19.56;37.92;99936.84;2055107;28;20035;-64
2021/04/17 04:05:50;;;;;;;3.27;2.40;;;;;;;19.56;37.77;99931.38;2054519;28;20027;-65
2021/04/17 04:06:51;;;;;;;4.60;2.92;;;;;;;19.57;37.89;99938.53;2055095;28;20093;-64
2021/04/17 04:07:51;;;;;;;4.70;2.67;;;;;;;19.56;37.92;99940.44;2054913;28;20117;-64
2021/04/17 04:08:52;;;;;;;4.40;3.10;;;;;;;19.57;37.86;99933.06;2054990;28;20486;-65
2021/04/17 04:09:52;;;;;;;3.67;2.60;;;;;;;19.57;37.84;99939.41;2047221;28;20023;-64
2021/04/17 04:10:53;;;;;;;3.37;2.60;;;;;;;19.57;37.78;99936.66;2054083;28;20035;-64
2021/04/17 04:11:54;;;;;;;4.43;2.90;;;;;;;19.57;37.81;99936.66;2055214;28;20034;-64
2021/04/17 04:12:54;;;;;;;3.50;2.37;;;;;;;19.57;37.83;99930.34;2054556;28;20030;-64
2021/04/17 04:13:55;;;;;;;3.80;2.90;;;;;;;19.57;37.87;99930.34;2054140;28;20027;-65
2021/04/17 04:14:56;;;;;;;3.80;2.45;;;;;;;19.57;37.80;99931.19;2051361;28;20178;-64
2021/04/17 04:15:56;;;;;;;3.30;2.40;;;;;;;19.57;37.77;99935.81;2054718;28;20090;-64
2021/04/17 04:16:56;;;;;;;3.33;2.50;;;;;;;19.58;37.78;99943.88;2055150;28;20102;-64
2021/04/17 04:17:57;;;;;;;4.30;2.70;;;;;;;19.58;37.75;99941.13;2054515;28;20415;-65
2021/04/17 04:18:57;;;;;;;3.13;2.47;;;;;;;19.58;37.80;99943.00;2055119;28;20030;-64
2021/04/17 04:19:58;;;;;;;4.37;2.60;;;;;;;19.60;37.79;99940.97;2054468;28;20078;-64
2021/04/17 04:20:58;;;;;;;3.73;2.47;;;;;;;19.60;37.70;99940.97;2054296;28;20134;-64
2021/04/17 04:21:59;;;;;;;2.83;2.20;;;;;;;19.59;37.68;99944.72;2054751;28;20039;-64
2021/04/17 04:23:00;;;;;;;3.13;2.30;;;;;;;19.59;37.84;99945.56;2054228;28;20027;-64
2021/04/17 04:24:00;;;;;;;4.43;2.50;;;;;;;19.60;37.69;99941.84;2054827;28;20078;-64
2021/04/17 04:25:03;;;;;;;2.73;2.23;;;;;;;19.60;37.79;99947.31;2054668;28;20039;-64
2021/04/17 04:26:04;;;;;;;3.83;2.40;;;;;;;19.60;37.69;99941.84;2054139;28;20039;-64
2021/04/17 04:27:05;;;;;;;4.40;2.63;;;;;;;19.59;37.77;99945.56;2053968;28;20031;-64
2021/04/17 04:28:05;;;;;;;3.10;2.00;;;;;;;19.59;37.69;99956.50;2052261;28;20433;-64
2021/04/17 04:29:06;;;;;;;2.47;2.07;;;;;;;19.59;37.74;99951.03;2055057;28;20027;-64
2021/04/17 04:30:09;;;;;;;3.20;2.10;;;;;;;19.60;37.75;99947.31;2054814;28;20109;-64
2021/04/17 04:31:10;;;;;;;3.90;3.13;;;;;;;19.59;37.75;99945.56;2054706;28;20034;-64
2021/04/17 04:32:10;;;;;;;3.73;2.37;;;;;;;19.58;37.60;99946.59;2053887;28;20065;-64
2021/04/17 04:33:10;;;;;;;3.67;2.57;;;;;;;19.58;37.82;99954.81;2053765;28;20053;-64
2021/04/17 04:34:11;;;;;;;3.77;2.63;;;;;;;19.58;37.73;99959.41;2054736;28;20847;-64
2021/04/17 04:35:12;;;;;;;4.07;2.70;;;;;;;19.58;37.65;99953.94;2053618;28;20112;-64
2021/04/17 04:36:12;;;;;;;3.57;2.37;;;;;;;19.57;37.73;99953.06;2055074;28;20090;-64
2021/04/17 04:37:12;;;;;;;3.80;2.87;;;;;;;19.57;37.69;99958.53;2054792;28;20118;-64
2021/04/17 04:38:13;;;;;;;4.70;2.50;;;;;;;19.57;37.63;99947.59;2054626;28;20079;-64
2021/04/17 04:39:13;;;;;;;2.93;2.37;;;;;;;19.55;37.63;99955.13;2055090;28;20110;-64
2021/04/17 04:40:14;;;;;;;3.00;2.40;;;;;;;19.56;37.67;99956.84;2053515;28;20500;-64
2021/04/17 04:41:15;;;;;;;4.23;2.33;;;;;;;19.55;37.77;99948.78;2054890;28;20023;-64
2021/04/17 04:42:15;;;;;;;3.77;2.57;;;;;;;19.56;37.77;99958.72;2054247;28;20722;-64
2021/04/17 04:43:16;;;;;;;3.57;2.60;;;;;;;19.54;37.74;99958.84;2054199;28;20097;-64
2021/04/17 04:44:16;;;;;;;3.10;2.17;;;;;;;19.55;37.67;99954.25;2054306;28;20031;-64
2021/04/17 04:45:17;;;;;;;4.67;2.10;;;;;;;19.55;37.71;99960.59;2051565;28;20731;-64
2021/04/17 04:46:17;;;;;;;2.97;2.37;;;;;;;19.53;37.75;99957.16;2054040;28;20567;-64
2021/04/17 04:47:18;;;;;;;3.60;2.00;;;;;;;19.54;37.75;99963.47;2052875;28;20046;-64
2021/04/17 04:48:18;;;;;;;3.13;2.50;;;;;;;19.54;37.78;99964.31;2054885;28;20026;-64
2021/04/17 04:49:19;;;;;;;3.90;2.40;;;;;;;19.52;37.67;99960.88;2054129;28;20030;-64